Terminal Aerodrome Forecast
Issued by NWS Cleveland, OH

Home | Current Version | Previous Version | Graphics & Text | Print | Product List | Glossary Off
Versions: 1 2 3 4 5 6 7 8 9 10 11 12 13 14 15 16 17 18

000
FTUS41 KCLE 270300 AAA
TAFTOL
TAF AMD
KTOL 270317Z 2703/2724 VRB04KT P6SM OVC080
     FM271600 33010G20KT P6SM OVC025
     FM272000 36010KT P6SM OVC050=

USA.gov is the U.S. government's official web portal to all federal, state and local government web resources and services.